createdAt,value
2022-09-15T00:00:00.736Z,187
2022-09-15T00:00:31.659Z,182
2022-09-15T00:01:04.041Z,172
2022-09-15T00:01:35.468Z,206
2022-09-15T00:02:07.794Z,69
2022-09-15T00:02:35.237Z,101
2022-09-15T00:02:55.884Z,178
2022-09-15T00:03:27.667Z,158
2022-09-15T00:03:59.688Z,245
2022-09-15T00:04:31.782Z,238
2022-09-15T00:05:04.691Z,211
2022-09-15T00:05:35.180Z,154
2022-09-15T00:05:52.027Z,215
2022-09-15T00:06:23.898Z,137
2022-09-15T00:06:40.822Z,185
2022-09-15T00:07:11.641Z,192
2022-09-15T00:07:36.360Z,162
2022-09-15T00:07:59.676Z,124
2022-09-15T00:08:31.694Z,118
2022-09-15T00:09:03.940Z,209
2022-09-15T00:09:35.165Z,147
2022-09-15T00:09:51.645Z,211
2022-09-15T00:10:23.960Z,170
2022-09-15T00:10:40.954Z,160
2022-09-15T00:11:11.691Z,150
2022-09-15T00:11:40.230Z,168
2022-09-15T00:11:59.653Z,212
2022-09-15T00:12:31.760Z,190
2022-09-15T00:13:04.058Z,233
2022-09-15T00:13:35.435Z,154
2022-09-15T00:14:07.663Z,17
2022-09-15T00:14:35.090Z,322
2022-09-15T00:14:56.883Z,245
2022-09-15T00:15:27.934Z,204
2022-09-15T00:15:59.736Z,246
2022-09-15T00:16:31.770Z,208
2022-09-15T00:17:05.232Z,229
2022-09-15T00:17:35.378Z,216
2022-09-15T00:17:51.576Z,264
2022-09-15T00:18:23.971Z,213
2022-09-15T00:18:41.089Z,175
2022-09-15T00:19:11.738Z,191
2022-09-15T00:19:35.068Z,235
2022-09-15T00:19:59.693Z,242
2022-09-15T00:20:31.739Z,183
2022-09-15T00:21:04.139Z,237
2022-09-15T00:21:35.199Z,229
2022-09-15T00:21:51.893Z,213
2022-09-15T00:22:23.918Z,241
2022-09-15T00:22:55.980Z,226
2022-09-15T00:23:27.684Z,213
2022-09-15T00:23:59.900Z,220
2022-09-15T00:24:31.742Z,178
2022-09-15T00:25:04.089Z,184
2022-09-15T00:25:35.156Z,234
2022-09-15T00:25:52.668Z,226
2022-09-15T00:26:23.994Z,117
2022-09-15T00:26:41.234Z,150
2022-09-15T00:27:11.958Z,234
2022-09-15T00:27:35.058Z,187
2022-09-15T00:28:00.562Z,162
2022-09-15T00:28:31.662Z,244
2022-09-15T00:29:04.095Z,194
2022-09-15T00:29:36.148Z,220
2022-09-15T00:30:08.010Z,246
2022-09-15T00:30:35.364Z,156
2022-09-15T00:30:56.636Z,198
2022-09-15T00:31:27.748Z,208
2022-09-15T00:31:59.658Z,192
2022-09-15T00:32:31.695Z,146
2022-09-15T00:33:04.396Z,183
2022-09-15T00:33:40.690Z,143
2022-09-15T00:34:07.691Z,205
2022-09-15T00:34:35.498Z,205
2022-09-15T00:34:55.706Z,238
2022-09-15T00:35:28.465Z,229
2022-09-15T00:35:59.796Z,194
2022-09-15T00:36:33.905Z,153
2022-09-15T00:37:04.200Z,303
2022-09-15T00:37:36.095Z,241
2022-09-15T00:38:07.680Z,106
2022-09-15T00:38:35.109Z,229
2022-09-15T00:38:55.947Z,195
2022-09-15T00:39:27.684Z,216
2022-09-15T00:39:59.741Z,220
2022-09-15T00:40:33.924Z,181
2022-09-15T00:41:04.049Z,197
2022-09-15T00:41:36.278Z,197
2022-09-15T00:42:08.476Z,149
2022-09-15T00:42:36.113Z,170
2022-09-15T00:42:55.655Z,273
2022-09-15T00:43:27.604Z,229
2022-09-15T00:43:59.643Z,168
2022-09-15T00:44:31.653Z,234
2022-09-15T00:45:04.098Z,209
2022-09-15T00:45:37.116Z,229
2022-09-15T00:46:07.752Z,206
2022-09-15T00:46:36.244Z,222
2022-09-15T00:47:17.870Z,246
2022-09-15T00:47:27.640Z,241
2022-09-15T00:47:59.621Z,207
2022-09-15T00:48:31.680Z,237
2022-09-15T00:49:04.057Z,196
2022-09-15T00:49:36.452Z,175
2022-09-15T00:50:07.595Z,203
2022-09-15T00:50:35.081Z,209
2022-09-15T00:50:55.665Z,245
2022-09-15T00:51:27.768Z,219
2022-09-15T00:51:59.714Z,204
2022-09-15T00:52:31.620Z,238
2022-09-15T00:53:04.107Z,265
2022-09-15T00:53:35.075Z,222
2022-09-15T00:53:51.877Z,223
2022-09-15T00:54:24.118Z,262
2022-09-15T00:54:40.979Z,258
2022-09-15T00:55:11.837Z,259
2022-09-15T00:55:35.083Z,259
2022-09-15T00:56:00.614Z,251
2022-09-15T00:56:32.507Z,239
2022-09-15T00:57:04.626Z,229
2022-09-15T00:57:37.085Z,246
2022-09-15T00:58:07.730Z,245
2022-09-15T00:58:38.823Z,245
2022-09-15T00:58:55.665Z,245
2022-09-15T00:59:27.987Z,245
2022-09-15T00:59:59.633Z,290
2022-09-15T01:00:31.714Z,0
2022-09-15T01:01:04.121Z,46
2022-09-15T01:01:38.498Z,222
2022-09-15T01:02:09.103Z,241
2022-09-15T01:02:35.399Z,223
2022-09-15T01:02:55.625Z,271
2022-09-15T01:03:27.646Z,220
2022-09-15T01:04:00.975Z,221
2022-09-15T01:04:31.687Z,223
2022-09-15T01:05:04.069Z,168
2022-09-15T01:05:37.073Z,157
2022-09-15T01:06:07.684Z,206
2022-09-15T01:06:35.210Z,226
2022-09-15T01:06:55.675Z,96
2022-09-15T01:07:27.586Z,214
2022-09-15T01:07:59.626Z,222
2022-09-15T01:08:31.779Z,221
2022-09-15T01:09:04.199Z,221
2022-09-15T01:09:36.640Z,206
2022-09-15T01:10:07.613Z,213
2022-09-15T01:10:35.191Z,228
2022-09-15T01:10:55.650Z,211
2022-09-15T01:11:27.612Z,162
2022-09-15T01:11:59.771Z,221
2022-09-15T01:12:31.643Z,213
2022-09-15T01:13:04.572Z,216
2022-09-15T01:13:35.143Z,220
2022-09-15T01:13:52.586Z,216
2022-09-15T01:14:24.047Z,211
2022-09-15T01:14:40.812Z,191
2022-09-15T01:15:11.726Z,207
2022-09-15T01:15:36.069Z,200
2022-09-15T01:16:00.430Z,221
2022-09-15T01:16:31.766Z,216
2022-09-15T01:17:04.021Z,256
2022-09-15T01:17:35.158Z,221
2022-09-15T01:17:51.544Z,229
2022-09-15T01:18:23.934Z,182
2022-09-15T01:18:40.867Z,228
2022-09-15T01:19:11.642Z,241
2022-09-15T01:19:35.106Z,262
2022-09-15T01:20:00.116Z,198
2022-09-15T01:20:31.644Z,239
2022-09-15T01:21:05.263Z,220
2022-09-15T01:21:36.103Z,244
2022-09-15T01:22:08.471Z,206
2022-09-15T01:22:35.180Z,199
2022-09-15T01:22:55.647Z,222
2022-09-15T01:23:27.685Z,303
2022-09-15T01:24:00.584Z,221
2022-09-15T01:24:31.611Z,247
2022-09-15T01:25:03.944Z,221
2022-09-15T01:25:35.103Z,181
2022-09-15T01:25:51.555Z,216
2022-09-15T01:26:24.632Z,221
2022-09-15T01:26:42.684Z,307
2022-09-15T01:27:37.595Z,250
2022-09-15T01:27:43.995Z,222
2022-09-15T01:28:15.861Z,173
2022-09-15T01:28:35.237Z,240
2022-09-15T01:29:04.086Z,251
2022-09-15T01:29:35.708Z,283
2022-09-15T01:30:07.958Z,221
2022-09-15T01:30:36.930Z,220
2022-09-15T01:30:55.837Z,223
2022-09-15T01:31:27.686Z,239
2022-09-15T01:31:59.705Z,202
2022-09-15T01:32:31.553Z,192
2022-09-15T01:33:04.221Z,220
2022-09-15T01:33:35.272Z,221
2022-09-15T01:33:51.662Z,216
2022-09-15T01:34:24.059Z,286
2022-09-15T01:34:41.737Z,187
2022-09-15T01:35:11.782Z,278
2022-09-15T01:35:37.518Z,198
2022-09-15T01:35:59.840Z,229
2022-09-15T01:36:32.716Z,222
2022-09-15T01:37:04.054Z,196
2022-09-15T01:37:35.411Z,216
2022-09-15T01:37:52.415Z,241
2022-09-15T01:38:24.576Z,198
2022-09-15T01:38:41.588Z,201
2022-09-15T01:39:11.685Z,192
2022-09-15T01:39:35.184Z,208
2022-09-15T01:39:59.766Z,216
2022-09-15T01:40:32.585Z,265
2022-09-15T01:41:04.114Z,250
2022-09-15T01:41:35.120Z,256
2022-09-15T01:41:51.929Z,201
2022-09-15T01:42:24.034Z,248
2022-09-15T01:42:42.157Z,208
2022-09-15T01:43:11.891Z,242
2022-09-15T01:43:36.082Z,214
2022-09-15T01:43:59.665Z,215
2022-09-15T01:44:31.801Z,209
2022-09-15T01:45:04.291Z,220
2022-09-15T01:45:35.218Z,221
2022-09-15T01:45:52.542Z,135
2022-09-15T01:46:24.686Z,200
2022-09-15T01:46:41.616Z,208
2022-09-15T01:47:14.149Z,243
2022-09-15T01:47:36.690Z,255
2022-09-15T01:47:59.556Z,201
2022-09-15T01:48:31.716Z,199
2022-09-15T01:49:19.541Z,196
2022-09-15T01:49:51.676Z,254
2022-09-15T01:50:24.541Z,234
2022-09-15T01:50:41.625Z,267
2022-09-15T01:51:11.808Z,166
2022-09-15T01:51:35.198Z,229
2022-09-15T01:51:59.673Z,214
2022-09-15T01:52:31.718Z,225
2022-09-15T01:53:04.081Z,120
2022-09-15T01:53:35.186Z,136
2022-09-15T01:53:51.966Z,202
2022-09-15T01:54:24.490Z,213
2022-09-15T01:54:42.083Z,215
2022-09-15T01:55:11.601Z,235
2022-09-15T01:55:36.195Z,246
2022-09-15T01:55:59.533Z,213
2022-09-15T01:56:32.158Z,235
2022-09-15T01:57:04.667Z,243
2022-09-15T01:57:36.728Z,222
2022-09-15T01:58:07.619Z,223
2022-09-15T01:58:36.093Z,241
2022-09-15T01:58:55.977Z,164
2022-09-15T01:59:27.627Z,221
2022-09-15T01:59:59.618Z,170
2022-09-15T02:00:31.629Z,206
2022-09-15T02:01:04.119Z,192
2022-09-15T02:01:36.211Z,143
2022-09-15T02:02:07.600Z,181
2022-09-15T02:02:40.112Z,213
2022-09-15T02:03:11.565Z,213
2022-09-15T02:03:35.653Z,176
2022-09-15T02:03:59.613Z,206
2022-09-15T02:04:31.541Z,184
2022-09-15T02:05:04.673Z,206
2022-09-15T02:05:35.701Z,229
2022-09-15T02:06:07.713Z,209
2022-09-15T02:06:35.151Z,155
2022-09-15T02:06:56.531Z,213
2022-09-15T02:07:28.642Z,221
2022-09-15T02:07:59.844Z,208
2022-09-15T02:08:32.417Z,202
2022-09-15T02:09:04.151Z,213
2022-09-15T02:09:36.053Z,215
2022-09-15T02:10:07.623Z,282
2022-09-15T02:10:35.179Z,213
2022-09-15T02:10:56.512Z,191
2022-09-15T02:11:27.768Z,215
2022-09-15T02:12:00.509Z,201
2022-09-15T02:12:31.612Z,229
2022-09-15T02:13:04.083Z,200
2022-09-15T02:13:35.465Z,221
2022-09-15T02:14:08.395Z,199
2022-09-15T02:14:35.116Z,195
2022-09-15T02:14:56.004Z,202
2022-09-15T02:15:27.659Z,249
2022-09-15T02:16:00.637Z,215
2022-09-15T02:16:31.684Z,213
2022-09-15T02:17:04.031Z,206
2022-09-15T02:17:35.283Z,229
2022-09-15T02:17:52.743Z,216
2022-09-15T02:18:23.992Z,206
2022-09-15T02:18:41.593Z,200
2022-09-15T02:19:11.616Z,178
2022-09-15T02:19:37.945Z,206
2022-09-15T02:19:59.629Z,242
2022-09-15T02:20:31.604Z,196
2022-09-15T02:21:04.542Z,257
2022-09-15T02:21:35.431Z,203
2022-09-15T02:22:08.827Z,220
2022-09-15T02:22:35.331Z,218
2022-09-15T02:22:55.638Z,160
2022-09-15T02:23:27.572Z,206
2022-09-15T02:23:59.653Z,222
2022-09-15T02:24:31.757Z,222
2022-09-15T02:25:04.114Z,222
2022-09-15T02:25:35.426Z,199
2022-09-15T02:25:51.689Z,243
2022-09-15T02:26:24.030Z,200
2022-09-15T02:26:40.981Z,336
2022-09-15T02:27:12.167Z,229
2022-09-15T02:27:36.395Z,287
2022-09-15T02:28:00.381Z,202
2022-09-15T02:28:32.463Z,222
2022-09-15T02:29:03.997Z,277
2022-09-15T02:29:35.627Z,169
2022-09-15T02:30:07.980Z,238
2022-09-15T02:30:35.464Z,249
2022-09-15T02:30:55.846Z,223
2022-09-15T02:31:27.775Z,221
2022-09-15T02:32:03.736Z,222
2022-09-15T02:32:31.587Z,209
2022-09-15T02:33:04.233Z,242
2022-09-15T02:33:35.260Z,349
2022-09-15T02:33:51.822Z,222
2022-09-15T02:34:24.168Z,229
2022-09-15T02:34:41.954Z,203
2022-09-15T02:35:11.801Z,222
2022-09-15T02:35:38.014Z,221
2022-09-15T02:35:59.706Z,215
2022-09-15T02:36:31.705Z,215
2022-09-15T02:37:03.997Z,211
2022-09-15T02:37:35.272Z,223
2022-09-15T02:37:51.857Z,208
2022-09-15T02:38:24.813Z,222
2022-09-15T02:38:43.843Z,215
2022-09-15T02:39:11.661Z,229
2022-09-15T02:39:35.518Z,206
2022-09-15T02:40:02.010Z,216
2022-09-15T02:40:31.653Z,215
2022-09-15T02:41:03.997Z,242
2022-09-15T02:41:35.213Z,202
2022-09-15T02:41:51.580Z,222
2022-09-15T02:42:23.887Z,223
2022-09-15T02:42:41.861Z,222
2022-09-15T02:43:11.593Z,222
2022-09-15T02:43:36.009Z,183
2022-09-15T02:43:59.641Z,283
2022-09-15T02:44:32.154Z,248
2022-09-15T02:45:04.255Z,247
2022-09-15T02:45:35.252Z,206
2022-09-15T02:45:51.684Z,263
2022-09-15T02:46:24.474Z,294
2022-09-15T02:46:41.468Z,208
2022-09-15T02:47:12.568Z,254
2022-09-15T02:47:35.140Z,216
2022-09-15T02:48:00.522Z,236
2022-09-15T02:48:31.602Z,251
2022-09-15T02:49:04.008Z,239
2022-09-15T02:49:36.575Z,241
2022-09-15T02:50:07.558Z,302
2022-09-15T02:50:35.295Z,222
2022-09-15T02:50:56.490Z,222
2022-09-15T02:51:28.267Z,214
2022-09-15T02:51:59.717Z,248
2022-09-15T02:52:32.640Z,230
2022-09-15T02:53:04.043Z,258
2022-09-15T02:53:35.135Z,282
2022-09-15T02:53:51.682Z,215
2022-09-15T02:54:24.006Z,240
2022-09-15T02:54:40.760Z,239
2022-09-15T02:55:11.603Z,225
2022-09-15T02:55:35.152Z,230
2022-09-15T02:55:59.612Z,215
2022-09-15T02:56:32.296Z,223
2022-09-15T02:57:04.036Z,196
2022-09-15T02:57:35.241Z,209
2022-09-15T02:58:07.548Z,202
2022-09-15T02:58:35.779Z,252
2022-09-15T02:58:55.686Z,242
2022-09-15T02:59:27.587Z,182
2022-09-15T02:59:59.714Z,257
2022-09-15T03:00:32.010Z,223
2022-09-15T03:01:04.053Z,236
2022-09-15T03:01:36.726Z,222
2022-09-15T03:02:07.715Z,274
2022-09-15T03:02:35.138Z,258
2022-09-15T03:02:55.749Z,223
2022-09-15T03:03:27.579Z,279
2022-09-15T03:04:00.623Z,222
2022-09-15T03:04:32.357Z,223
2022-09-15T03:05:04.249Z,230
2022-09-15T03:05:35.199Z,222
2022-09-15T03:05:51.637Z,223
2022-09-15T03:06:23.858Z,291
2022-09-15T03:06:43.815Z,214
2022-09-15T03:07:11.928Z,254
2022-09-15T03:07:38.783Z,273
2022-09-15T03:07:59.595Z,297
2022-09-15T03:08:31.592Z,222
2022-09-15T03:09:04.115Z,243
2022-09-15T03:09:35.225Z,222
2022-09-15T03:10:07.560Z,276
2022-09-15T03:10:35.414Z,208
2022-09-15T03:10:55.653Z,209
2022-09-15T03:11:27.543Z,287
2022-09-15T03:12:00.677Z,293
2022-09-15T03:12:34.572Z,222
2022-09-15T03:13:04.163Z,210
2022-09-15T03:13:35.312Z,268
2022-09-15T03:14:07.779Z,195
2022-09-15T03:14:35.180Z,246
2022-09-15T03:14:55.616Z,265
2022-09-15T03:15:27.706Z,240
2022-09-15T03:15:59.749Z,295
2022-09-15T03:16:31.683Z,245
2022-09-15T03:17:03.835Z,223
2022-09-15T03:17:35.230Z,274
2022-09-15T03:18:07.693Z,240
2022-09-15T03:18:36.061Z,246
2022-09-15T03:18:57.337Z,222
2022-09-15T03:19:27.568Z,263
2022-09-15T03:19:59.706Z,216
2022-09-15T03:20:31.737Z,247
2022-09-15T03:21:04.066Z,216
2022-09-15T03:21:35.136Z,266
2022-09-15T03:22:07.577Z,216
2022-09-15T03:22:35.194Z,243
2022-09-15T03:22:55.664Z,222
2022-09-15T03:23:28.636Z,202
2022-09-15T03:23:59.557Z,222
2022-09-15T03:24:31.568Z,214
2022-09-15T03:25:19.334Z,265
2022-09-15T03:25:51.563Z,206
2022-09-15T03:26:23.957Z,257
2022-09-15T03:26:42.492Z,286
2022-09-15T03:27:22.196Z,284
2022-09-15T03:27:35.241Z,250
2022-09-15T03:28:00.528Z,259
2022-09-15T03:28:31.549Z,187
2022-09-15T03:29:03.875Z,223
2022-09-15T03:29:35.182Z,206
2022-09-15T03:29:51.633Z,306
2022-09-15T03:30:24.341Z,245
2022-09-15T03:30:41.102Z,240
2022-09-15T03:31:14.331Z,280
2022-09-15T03:31:36.764Z,267
2022-09-15T03:31:59.658Z,303
2022-09-15T03:32:31.588Z,278
2022-09-15T03:33:03.883Z,307
2022-09-15T03:33:35.164Z,299
2022-09-15T03:33:51.618Z,286
2022-09-15T03:34:23.860Z,242
2022-09-15T03:34:40.688Z,291
2022-09-15T03:35:12.512Z,242
2022-09-15T03:35:35.166Z,222
2022-09-15T03:35:59.561Z,240
2022-09-15T03:36:31.574Z,280
2022-09-15T03:37:04.468Z,188
2022-09-15T03:37:35.707Z,270
2022-09-15T03:38:07.575Z,223
2022-09-15T03:38:35.176Z,242
2022-09-15T03:38:55.609Z,268
2022-09-15T03:39:27.770Z,240
2022-09-15T03:39:59.725Z,280
2022-09-15T03:40:31.727Z,223
2022-09-15T03:41:03.780Z,240
2022-09-15T03:41:35.225Z,255
2022-09-15T03:41:51.652Z,201
2022-09-15T03:42:25.141Z,230
2022-09-15T03:42:46.137Z,246
2022-09-15T03:43:15.407Z,286
2022-09-15T03:43:35.220Z,285
2022-09-15T03:43:59.541Z,287
2022-09-15T03:44:32.838Z,290
2022-09-15T03:45:03.536Z,258
2022-09-15T03:45:36.199Z,262
2022-09-15T03:46:07.652Z,240
2022-09-15T03:46:35.442Z,293
2022-09-15T03:46:55.655Z,283
2022-09-15T03:47:28.321Z,284
2022-09-15T03:47:59.534Z,283
2022-09-15T03:48:32.379Z,223
2022-09-15T03:49:03.828Z,295
2022-09-15T03:49:35.203Z,303
2022-09-15T03:49:51.847Z,294
2022-09-15T03:50:24.007Z,250
2022-09-15T03:50:41.144Z,223
2022-09-15T03:51:11.663Z,247
2022-09-15T03:51:35.256Z,299
2022-09-15T03:51:59.775Z,265
2022-09-15T03:52:34.095Z,285
2022-09-15T03:53:03.755Z,290
2022-09-15T03:53:35.283Z,293
2022-09-15T03:54:07.793Z,268
2022-09-15T03:54:36.021Z,223
2022-09-15T03:54:55.701Z,216
2022-09-15T03:55:27.478Z,222
2022-09-15T03:55:59.838Z,274
2022-09-15T03:56:31.564Z,285
2022-09-15T03:57:04.796Z,333
2022-09-15T03:57:35.735Z,348
2022-09-15T03:58:08.477Z,294
2022-09-15T03:58:35.467Z,252
2022-09-15T03:58:55.630Z,290
2022-09-15T03:59:27.524Z,303
2022-09-15T04:00:01.400Z,310
2022-09-15T04:00:31.648Z,346
2022-09-15T04:01:03.823Z,324
2022-09-15T04:01:35.417Z,307
2022-09-15T04:01:51.719Z,339
2022-09-15T04:02:23.958Z,324
2022-09-15T04:02:41.471Z,294
2022-09-15T04:03:11.553Z,290
2022-09-15T04:03:40.231Z,307
2022-09-15T04:04:00.502Z,328
2022-09-15T04:04:32.498Z,325
2022-09-15T04:05:03.790Z,328
2022-09-15T04:05:36.528Z,326
2022-09-15T04:06:07.505Z,309
2022-09-15T04:06:35.183Z,310
2022-09-15T04:06:55.834Z,309
2022-09-15T04:07:27.504Z,309
2022-09-15T04:07:59.639Z,309
2022-09-15T04:08:31.521Z,310
2022-09-15T04:09:03.954Z,310
2022-09-15T04:09:35.197Z,310
2022-09-15T04:09:51.641Z,336
2022-09-15T04:10:23.610Z,333
2022-09-15T04:10:41.338Z,324
2022-09-15T04:11:11.671Z,299
2022-09-15T04:11:37.085Z,299
2022-09-15T04:12:00.408Z,336
2022-09-15T04:12:31.541Z,324
2022-09-15T04:13:03.881Z,342
2022-09-15T04:13:35.268Z,342
2022-09-15T04:13:51.624Z,345
2022-09-15T04:14:25.556Z,43
2022-09-15T04:14:42.968Z,339
2022-09-15T04:15:11.616Z,347
2022-09-15T04:15:35.208Z,341
2022-09-15T04:15:59.806Z,307
2022-09-15T04:16:31.637Z,313
2022-09-15T04:17:05.545Z,333
2022-09-15T04:17:35.237Z,344
2022-09-15T04:17:51.660Z,298
2022-09-15T04:18:23.756Z,287
2022-09-15T04:18:40.629Z,291
2022-09-15T04:19:11.654Z,307
2022-09-15T04:19:36.655Z,307
2022-09-15T04:20:00.500Z,327
2022-09-15T04:20:32.438Z,327
2022-09-15T04:21:04.479Z,343
2022-09-15T04:21:35.102Z,324
2022-09-15T04:21:51.638Z,327
2022-09-15T04:22:24.638Z,307
2022-09-15T04:22:41.633Z,307
2022-09-15T04:23:11.626Z,307
2022-09-15T04:23:39.643Z,307
2022-09-15T04:24:00.402Z,307
2022-09-15T04:24:31.562Z,324
2022-09-15T04:25:04.050Z,282
2022-09-15T04:25:36.013Z,284
2022-09-15T04:26:09.388Z,335
2022-09-15T04:26:36.452Z,3
2022-09-15T04:26:55.911Z,356
2022-09-15T04:27:29.829Z,347
2022-09-15T04:27:59.569Z,347
2022-09-15T04:28:31.538Z,348
2022-09-15T04:29:04.918Z,346
2022-09-15T04:29:35.309Z,273
2022-09-15T04:30:07.838Z,307
2022-09-15T04:30:35.917Z,336
2022-09-15T04:30:56.332Z,359
2022-09-15T04:31:27.631Z,308
2022-09-15T04:31:59.614Z,355
2022-09-15T04:32:31.481Z,344
2022-09-15T04:33:03.639Z,343
2022-09-15T04:33:36.832Z,308
2022-09-15T04:34:07.410Z,307
2022-09-15T04:34:39.258Z,322
2022-09-15T04:34:55.525Z,322
2022-09-15T04:35:27.509Z,322
2022-09-15T04:36:00.739Z,277
2022-09-15T04:36:31.561Z,273
2022-09-15T04:37:04.803Z,274
2022-09-15T04:37:36.065Z,274
2022-09-15T04:37:51.762Z,307
2022-09-15T04:38:23.711Z,322
2022-09-15T04:38:40.835Z,339
2022-09-15T04:39:12.578Z,333
2022-09-15T04:39:35.619Z,333
2022-09-15T04:40:02.096Z,333
2022-09-15T04:40:32.317Z,333
2022-09-15T04:41:03.580Z,333
2022-09-15T04:41:36.011Z,333
2022-09-15T04:42:08.585Z,324
2022-09-15T04:42:35.254Z,324
2022-09-15T04:42:58.396Z,324
2022-09-15T04:43:28.473Z,324
2022-09-15T04:43:59.608Z,324
2022-09-15T04:44:31.501Z,324
2022-09-15T04:45:19.897Z,345
2022-09-15T04:45:51.563Z,346
2022-09-15T04:46:24.589Z,9
2022-09-15T04:46:41.528Z,359
2022-09-15T04:47:11.544Z,352
2022-09-15T04:47:35.238Z,343
2022-09-15T04:47:59.564Z,23
2022-09-15T04:48:31.553Z,61
2022-09-15T04:49:03.529Z,350
2022-09-15T04:49:37.324Z,342
2022-09-15T04:50:07.505Z,54
2022-09-15T04:50:35.204Z,46
2022-09-15T04:50:55.535Z,65
2022-09-15T04:51:28.092Z,52
2022-09-15T04:51:59.605Z,15
2022-09-15T04:52:31.468Z,357
2022-09-15T04:53:03.555Z,344
2022-09-15T04:53:36.021Z,333
2022-09-15T04:54:07.511Z,342
2022-09-15T04:54:39.945Z,342
2022-09-15T04:55:11.516Z,342
2022-09-15T04:55:35.236Z,344
2022-09-15T04:55:59.522Z,344
2022-09-15T04:56:32.092Z,328
2022-09-15T04:57:03.838Z,324
2022-09-15T04:57:35.264Z,4
2022-09-15T04:58:07.519Z,344
2022-09-15T04:58:35.655Z,344
2022-09-15T04:58:59.545Z,355
2022-09-15T04:59:27.528Z,299
2022-09-15T04:59:59.518Z,299
2022-09-15T05:00:31.854Z,299
2022-09-15T05:01:03.658Z,299
2022-09-15T05:01:36.826Z,342
2022-09-15T05:02:07.590Z,349
2022-09-15T05:02:50.903Z,299
2022-09-15T05:03:11.549Z,347
2022-09-15T05:03:36.805Z,335
2022-09-15T05:03:59.540Z,333
2022-09-15T05:04:33.627Z,328
2022-09-15T05:05:03.622Z,303
2022-09-15T05:05:37.954Z,307
2022-09-15T05:06:08.643Z,349
2022-09-15T05:06:36.902Z,15
2022-09-15T05:06:56.632Z,324
2022-09-15T05:07:27.760Z,284
2022-09-15T05:08:00.805Z,333
2022-09-15T05:08:31.432Z,324
2022-09-15T05:09:09.754Z,324
2022-09-15T05:09:35.253Z,327
2022-09-15T05:10:07.447Z,324
2022-09-15T05:10:35.663Z,328
2022-09-15T05:10:55.554Z,14
2022-09-15T05:11:27.502Z,342
2022-09-15T05:12:00.113Z,333
2022-09-15T05:12:31.476Z,45
2022-09-15T05:13:03.970Z,38
2022-09-15T05:13:36.473Z,333
2022-09-15T05:14:07.569Z,354
2022-09-15T05:14:38.114Z,356
2022-09-15T05:14:56.599Z,38
2022-09-15T05:15:27.595Z,17
2022-09-15T05:15:59.510Z,19
2022-09-15T05:16:31.517Z,21
2022-09-15T05:17:04.506Z,8
2022-09-15T05:17:36.214Z,349
2022-09-15T05:18:08.304Z,38
2022-09-15T05:18:35.443Z,38
2022-09-15T05:18:55.547Z,359
2022-09-15T05:19:27.624Z,342
2022-09-15T05:20:00.001Z,342
2022-09-15T05:20:31.615Z,333
2022-09-15T05:21:04.999Z,339
2022-09-15T05:21:37.845Z,339
2022-09-15T05:22:09.379Z,337
2022-09-15T05:22:39.523Z,337
2022-09-15T05:22:55.682Z,336
2022-09-15T05:23:27.742Z,336
2022-09-15T05:23:59.684Z,336
2022-09-15T05:24:31.662Z,335
2022-09-15T05:25:03.693Z,342
2022-09-15T05:25:36.150Z,339
2022-09-15T05:26:07.731Z,339
2022-09-15T05:26:36.324Z,336
2022-09-15T05:26:55.550Z,333
2022-09-15T05:27:28.512Z,333
2022-09-15T05:27:59.585Z,333
2022-09-15T05:28:31.466Z,333
2022-09-15T05:29:03.572Z,333
2022-09-15T05:29:35.226Z,333
2022-09-15T05:30:31.803Z,341
2022-09-15T05:30:43.632Z,341
2022-09-15T05:31:11.637Z,341
2022-09-15T05:31:35.346Z,341
2022-09-15T05:31:59.454Z,341
2022-09-15T05:32:31.488Z,51
2022-09-15T05:33:03.701Z,59
2022-09-15T05:33:35.383Z,57
2022-09-15T05:34:07.595Z,57
2022-09-15T05:34:35.706Z,57
2022-09-15T05:34:55.575Z,344
2022-09-15T05:35:27.655Z,324
2022-09-15T05:35:59.726Z,285
2022-09-15T05:36:31.650Z,297
2022-09-15T05:37:03.812Z,324
2022-09-15T05:37:35.476Z,335
2022-09-15T05:38:07.622Z,333
2022-09-15T05:38:35.428Z,335
2022-09-15T05:38:56.552Z,344
2022-09-15T05:39:27.630Z,344
2022-09-15T05:39:59.686Z,344
2022-09-15T05:40:31.660Z,344
2022-09-15T05:41:03.762Z,9
2022-09-15T05:41:35.445Z,16
2022-09-15T05:42:07.563Z,27
2022-09-15T05:42:36.069Z,25
2022-09-15T05:42:55.740Z,25
2022-09-15T05:43:28.526Z,36
2022-09-15T05:44:02.180Z,36
2022-09-15T05:44:31.589Z,27
2022-09-15T05:45:03.946Z,25
2022-09-15T05:45:35.668Z,36
2022-09-15T05:46:07.773Z,25
2022-09-15T05:46:36.217Z,25
2022-09-15T05:46:55.739Z,25
2022-09-15T05:47:28.187Z,26
2022-09-15T05:47:59.841Z,26
2022-09-15T05:48:31.589Z,26
2022-09-15T05:49:03.693Z,38
2022-09-15T05:49:36.315Z,357
2022-09-15T05:50:07.637Z,50
2022-09-15T05:50:35.479Z,336
2022-09-15T05:50:55.695Z,342
2022-09-15T05:51:28.534Z,324
2022-09-15T05:51:59.709Z,343
2022-09-15T05:52:32.369Z,14
2022-09-15T05:53:03.658Z,341
2022-09-15T05:53:35.721Z,326
2022-09-15T05:54:07.655Z,340
2022-09-15T05:54:36.835Z,353
2022-09-15T05:54:58.977Z,16
2022-09-15T05:55:27.623Z,2
2022-09-15T05:56:00.506Z,53
2022-09-15T05:56:31.643Z,128
2022-09-15T05:57:03.651Z,0
2022-09-15T05:57:36.606Z,50
2022-09-15T05:58:07.605Z,299
2022-09-15T05:58:37.996Z,85
2022-09-15T05:58:56.517Z,73
2022-09-15T05:59:27.603Z,72
2022-09-15T05:59:59.740Z,327
2022-09-15T06:00:31.743Z,135
2022-09-15T06:01:04.953Z,91
2022-09-15T06:01:35.979Z,108
2022-09-15T06:02:07.630Z,66
2022-09-15T06:02:37.183Z,83
2022-09-15T06:02:55.750Z,88
2022-09-15T06:03:31.478Z,150
2022-09-15T06:04:00.654Z,333
2022-09-15T06:04:31.840Z,128
2022-09-15T06:05:03.740Z,75
2022-09-15T06:05:35.484Z,74
2022-09-15T06:06:10.573Z,51
2022-09-15T06:06:36.079Z,59
2022-09-15T06:06:56.219Z,68
2022-09-15T06:07:28.606Z,64
2022-09-15T06:08:01.497Z,39
2022-09-15T06:08:31.634Z,16
2022-09-15T06:09:03.871Z,53
2022-09-15T06:09:35.581Z,50
2022-09-15T06:10:07.800Z,96
2022-09-15T06:10:36.708Z,70
2022-09-15T06:10:56.924Z,38
2022-09-15T06:11:29.764Z,46
2022-09-15T06:12:00.521Z,58
2022-09-15T06:12:31.665Z,59
2022-09-15T06:13:05.791Z,51
2022-09-15T06:13:38.046Z,94
2022-09-15T06:14:07.635Z,35
2022-09-15T06:14:35.599Z,57
2022-09-15T06:14:56.913Z,140
2022-09-15T06:15:27.705Z,80
2022-09-15T06:15:59.790Z,0
2022-09-15T06:16:31.688Z,37
2022-09-15T06:17:03.699Z,65
2022-09-15T06:17:35.498Z,109
2022-09-15T06:18:17.911Z,39
2022-09-15T06:18:35.611Z,60
2022-09-15T06:18:56.546Z,6
2022-09-15T06:19:27.599Z,39
2022-09-15T06:19:59.656Z,61
2022-09-15T06:20:31.612Z,46
2022-09-15T06:21:03.627Z,44
2022-09-15T06:21:35.577Z,50
2022-09-15T06:22:07.582Z,140
2022-09-15T06:22:36.464Z,22
2022-09-15T06:22:55.864Z,338
2022-09-15T06:23:29.153Z,81
2022-09-15T06:23:59.667Z,99
2022-09-15T06:24:31.638Z,120
2022-09-15T06:25:04.905Z,68
2022-09-15T06:25:35.535Z,46
2022-09-15T06:26:07.896Z,307
2022-09-15T06:26:35.791Z,343
2022-09-15T06:26:55.674Z,57
2022-09-15T06:27:27.534Z,352
2022-09-15T06:27:59.674Z,351
2022-09-15T06:28:32.651Z,334
2022-09-15T06:29:03.541Z,338
2022-09-15T06:29:36.319Z,356
2022-09-15T06:30:08.000Z,359
2022-09-15T06:30:35.539Z,359
2022-09-15T06:30:55.686Z,0
2022-09-15T06:31:27.570Z,62
2022-09-15T06:31:59.679Z,40
2022-09-15T06:32:31.650Z,353
2022-09-15T06:33:03.584Z,16
2022-09-15T06:33:36.938Z,16
2022-09-15T06:34:08.537Z,101
2022-09-15T06:34:36.293Z,49
2022-09-15T06:34:55.711Z,15
2022-09-15T06:35:27.509Z,83
2022-09-15T06:35:59.611Z,72
2022-09-15T06:36:32.241Z,25
2022-09-15T06:37:03.508Z,99
2022-09-15T06:37:36.290Z,70
2022-09-15T06:38:07.872Z,79
2022-09-15T06:38:40.286Z,110
2022-09-15T06:39:11.664Z,52
2022-09-15T06:39:35.586Z,17